createdAt,value
2018-09-25T00:00:31.927Z,1011.72
2018-09-25T00:01:32.135Z,1011.72
2018-09-25T00:02:32.277Z,1011.73
2018-09-25T00:03:32.451Z,1011.75
2018-09-25T00:04:32.617Z,1011.77
2018-09-25T00:05:32.785Z,1011.82
2018-09-25T00:06:32.962Z,1011.79
2018-09-25T00:07:33.136Z,1011.81
2018-09-25T00:08:33.305Z,1011.81
2018-09-25T00:09:33.478Z,1011.82
2018-09-25T00:10:33.650Z,1011.85
2018-09-25T00:11:33.829Z,1011.83
2018-09-25T00:12:33.990Z,1011.91
2018-09-25T00:13:34.167Z,1011.89
2018-09-25T00:14:34.334Z,1011.93
2018-09-25T00:15:34.502Z,1011.95
2018-09-25T00:16:34.665Z,1011.96
2018-09-25T00:17:34.844Z,1011.91
2018-09-25T00:18:35.013Z,1011.93
2018-09-25T00:19:35.208Z,1012.00
2018-09-25T00:20:35.354Z,1012.01
2018-09-25T00:21:35.526Z,1011.99
2018-09-25T00:22:35.711Z,1011.95
2018-09-25T00:23:35.873Z,1011.94
2018-09-25T00:24:36.053Z,1011.97
2018-09-25T00:25:36.245Z,1011.96
2018-09-25T00:26:36.412Z,1011.96
2018-09-25T00:27:36.583Z,1012.02
2018-09-25T00:28:36.761Z,1012.04
2018-09-25T00:29:36.944Z,1012.01
2018-09-25T00:30:37.112Z,1012.03
2018-09-25T00:31:37.290Z,1012.07
2018-09-25T00:32:37.469Z,1012.05
2018-09-25T00:33:37.641Z,1012.10
2018-09-25T00:34:37.813Z,1012.06
2018-09-25T00:35:37.980Z,1012.06
2018-09-25T00:36:38.159Z,1012.05
2018-09-25T00:37:38.331Z,1012.07
2018-09-25T00:38:38.519Z,1012.07
2018-09-25T00:39:38.708Z,1012.08
2018-09-25T00:40:38.880Z,1012.09
2018-09-25T00:41:39.053Z,1012.08
2018-09-25T00:42:39.228Z,1012.09
2018-09-25T00:43:39.394Z,1012.09
2018-09-25T00:44:39.573Z,1012.13
2018-09-25T00:45:39.744Z,1012.12
2018-09-25T00:46:39.911Z,1012.09
2018-09-25T00:47:40.095Z,1012.12
2018-09-25T00:48:40.263Z,1012.08
2018-09-25T00:49:40.442Z,1012.06
2018-09-25T00:50:40.675Z,1012.06
2018-09-25T00:51:40.730Z,1012.07
2018-09-25T00:52:40.905Z,1012.08
2018-09-25T00:53:41.084Z,1012.08
2018-09-25T00:54:41.249Z,1012.09
2018-09-25T00:55:41.420Z,1012.07
2018-09-25T00:56:41.589Z,1012.08
2018-09-25T00:57:41.757Z,1012.11
2018-09-25T00:58:41.938Z,1012.09
2018-09-25T00:59:42.106Z,1012.09
2018-09-25T01:00:42.282Z,1012.08
2018-09-25T01:01:42.459Z,1012.07
2018-09-25T01:02:42.633Z,1012.09
2018-09-25T01:03:42.797Z,1012.04
2018-09-25T01:04:42.972Z,1012.08
2018-09-25T01:05:43.156Z,1012.06
2018-09-25T01:06:43.326Z,1012.04
2018-09-25T01:07:43.514Z,1012.07
2018-09-25T01:08:43.680Z,1012.07
2018-09-25T01:09:43.861Z,1012.05
2018-09-25T01:10:44.056Z,1012.10
2018-09-25T01:11:44.221Z,1012.09
2018-09-25T01:12:44.399Z,1012.11
2018-09-25T01:13:44.572Z,1012.10
2018-09-25T01:14:44.739Z,1012.11
2018-09-25T01:15:44.908Z,1012.13
2018-09-25T01:16:46.050Z,1012.06
2018-09-25T01:17:45.234Z,1012.08
2018-09-25T01:18:45.411Z,1012.02
2018-09-25T01:19:45.588Z,1012.05
2018-09-25T01:20:45.810Z,1012.11
2018-09-25T01:21:45.983Z,1012.10
2018-09-25T01:22:46.153Z,1012.09
2018-09-25T01:23:46.333Z,1012.09
2018-09-25T01:24:46.507Z,1012.07
2018-09-25T01:25:46.687Z,1012.11
2018-09-25T01:26:46.873Z,1012.05
2018-09-25T01:27:47.039Z,1012.08
2018-09-25T01:28:47.208Z,1012.12
2018-09-25T01:29:47.397Z,1012.13
2018-09-25T01:30:47.573Z,1012.15
2018-09-25T01:31:47.743Z,1012.16
2018-09-25T01:32:47.917Z,1012.15
2018-09-25T01:33:48.104Z,1012.12
2018-09-25T01:34:48.292Z,1012.14
2018-09-25T01:35:48.466Z,1012.15
2018-09-25T01:36:48.641Z,1012.17
2018-09-25T01:37:48.820Z,1012.13
2018-09-25T01:38:49.006Z,1012.12
2018-09-25T01:39:49.181Z,1012.11
2018-09-25T01:40:49.344Z,1012.10
2018-09-25T01:41:49.522Z,1012.07
2018-09-25T01:42:49.698Z,1012.13
2018-09-25T01:43:49.876Z,1012.19
2018-09-25T01:44:50.124Z,1012.18
2018-09-25T01:45:50.184Z,1012.21
2018-09-25T01:46:50.379Z,1012.22
2018-09-25T01:47:50.543Z,1012.19
2018-09-25T01:48:50.724Z,1012.21
2018-09-25T01:49:50.901Z,1012.24
2018-09-25T01:50:51.082Z,1012.26
2018-09-25T01:51:51.251Z,1012.26
2018-09-25T01:52:51.427Z,1012.27
2018-09-25T01:53:51.600Z,1012.27
2018-09-25T01:54:51.775Z,1012.34
2018-09-25T01:55:51.953Z,1012.29
2018-09-25T01:56:52.162Z,1012.32
2018-09-25T01:57:52.335Z,1012.31
2018-09-25T01:58:52.508Z,1012.30
2018-09-25T01:59:52.705Z,1012.32
2018-09-25T02:00:52.865Z,1012.35
2018-09-25T02:01:53.048Z,1012.33
2018-09-25T02:02:53.209Z,1012.33
2018-09-25T02:03:53.392Z,1012.33
2018-09-25T02:04:53.565Z,1012.35
2018-09-25T02:05:53.754Z,1012.35
2018-09-25T02:06:53.948Z,1012.36
2018-09-25T02:07:54.131Z,1012.38
2018-09-25T02:08:54.303Z,1012.40
2018-09-25T02:09:54.467Z,1012.43
2018-09-25T02:10:54.637Z,1012.43
2018-09-25T02:11:54.803Z,1012.48
2018-09-25T02:12:55.038Z,1012.48
2018-09-25T02:13:55.095Z,1012.54
2018-09-25T02:14:55.268Z,1012.51
2018-09-25T02:15:55.450Z,1012.51
2018-09-25T02:16:55.633Z,1012.50
2018-09-25T02:17:55.815Z,1012.48
2018-09-25T02:18:55.989Z,1012.45
2018-09-25T02:19:56.165Z,1012.45
2018-09-25T02:20:56.339Z,1012.42
2018-09-25T02:21:56.516Z,1012.42
2018-09-25T02:22:56.687Z,1012.39
2018-09-25T02:23:56.869Z,1012.37
2018-09-25T02:24:57.045Z,1012.36
2018-09-25T02:25:57.224Z,1012.44
2018-09-25T02:26:57.409Z,1012.47
2018-09-25T02:27:57.586Z,1012.51
2018-09-25T02:28:57.749Z,1012.54
2018-09-25T02:29:57.924Z,1012.56
2018-09-25T02:30:58.097Z,1012.55
2018-09-25T02:31:58.270Z,1012.56
2018-09-25T02:32:58.444Z,1012.62
2018-09-25T02:33:58.621Z,1012.58
2018-09-25T02:34:58.798Z,1012.57
2018-09-25T02:35:58.971Z,1012.59
2018-09-25T02:36:59.154Z,1012.57
2018-09-25T02:37:59.333Z,1012.61
2018-09-25T02:38:59.512Z,1012.56
2018-09-25T02:39:59.687Z,1012.59
2018-09-25T02:40:59.859Z,1012.60
2018-09-25T02:42:00.036Z,1012.63
2018-09-25T02:43:00.217Z,1012.70
2018-09-25T02:44:00.382Z,1012.68
2018-09-25T02:45:00.556Z,1012.70
2018-09-25T02:46:00.733Z,1012.72
2018-09-25T02:47:00.906Z,1012.73
2018-09-25T02:48:01.077Z,1012.71
2018-09-25T02:49:01.253Z,1012.71
2018-09-25T02:50:01.427Z,1012.70
2018-09-25T02:51:01.605Z,1012.66
2018-09-25T02:52:01.784Z,1012.68
2018-09-25T02:53:01.961Z,1012.65
2018-09-25T02:54:02.131Z,1012.63
2018-09-25T02:55:02.303Z,1012.69
2018-09-25T02:56:02.481Z,1012.70
2018-09-25T02:57:02.651Z,1012.67
2018-09-25T02:58:02.826Z,1012.65
2018-09-25T02:59:02.997Z,1012.69
2018-09-25T03:00:03.174Z,1012.68
2018-09-25T03:01:03.352Z,1012.74
2018-09-25T03:02:03.529Z,1012.72
2018-09-25T03:03:09.016Z,1012.71
2018-09-25T03:04:06.946Z,1012.69
2018-09-25T03:05:04.822Z,1012.68
2018-09-25T03:06:05.727Z,1012.71
2018-09-25T03:07:06.461Z,1012.66
2018-09-25T03:08:04.577Z,1012.68
2018-09-25T03:09:04.747Z,1012.68
2018-09-25T03:10:04.921Z,1012.69
2018-09-25T03:11:05.092Z,1012.70
2018-09-25T03:12:05.261Z,1012.67
2018-09-25T03:13:05.438Z,1012.67
2018-09-25T03:14:05.611Z,1012.71
2018-09-25T03:15:05.791Z,1012.67
2018-09-25T03:16:05.976Z,1012.70
2018-09-25T03:17:06.141Z,1012.68
2018-09-25T03:18:06.323Z,1012.70
2018-09-25T03:19:06.506Z,1012.68
2018-09-25T03:20:06.675Z,1012.71
2018-09-25T03:21:06.851Z,1012.68
2018-09-25T03:22:07.023Z,1012.70
2018-09-25T03:23:07.194Z,1012.70
2018-09-25T03:24:07.366Z,1012.73
2018-09-25T03:25:07.543Z,1012.74
2018-09-25T03:26:07.714Z,1012.74
2018-09-25T03:27:07.887Z,1012.72
2018-09-25T03:28:08.064Z,1012.71
2018-09-25T03:29:08.243Z,1012.71
2018-09-25T03:30:08.418Z,1012.73
2018-09-25T03:31:08.594Z,1012.71
2018-09-25T03:32:08.775Z,1012.74
2018-09-25T03:33:08.946Z,1012.75
2018-09-25T03:34:09.119Z,1012.74
2018-09-25T03:35:09.287Z,1012.73
2018-09-25T03:36:09.458Z,1012.73
2018-09-25T03:37:09.627Z,1012.77
2018-09-25T03:38:09.796Z,1012.74
2018-09-25T03:39:09.961Z,1012.74
2018-09-25T03:40:10.176Z,1012.77
2018-09-25T03:41:10.351Z,1012.76
2018-09-25T03:42:10.515Z,1012.77
2018-09-25T03:43:10.693Z,1012.73
2018-09-25T03:44:10.872Z,1012.72
2018-09-25T03:45:11.037Z,1012.70
2018-09-25T03:46:11.269Z,1012.66
2018-09-25T03:47:11.415Z,1012.66
2018-09-25T03:48:11.601Z,1012.69
2018-09-25T03:49:11.765Z,1012.70
2018-09-25T03:50:11.943Z,1012.70
2018-09-25T03:51:12.108Z,1012.72
2018-09-25T03:52:12.279Z,1012.78
2018-09-25T03:53:12.447Z,1012.76
2018-09-25T03:54:12.616Z,1012.78
2018-09-25T03:55:12.797Z,1012.76
2018-09-25T03:56:12.975Z,1012.81
2018-09-25T03:57:13.150Z,1012.80
2018-09-25T03:58:14.436Z,1012.81
2018-09-25T03:59:13.522Z,1012.81
2018-09-25T04:00:13.697Z,1012.79
2018-09-25T04:01:13.873Z,1012.82
2018-09-25T04:02:14.044Z,1012.81
2018-09-25T04:03:14.221Z,1012.81
2018-09-25T04:04:14.396Z,1012.82
2018-09-25T04:05:14.575Z,1012.83
2018-09-25T04:06:14.764Z,1012.84
2018-09-25T04:07:14.940Z,1012.82
2018-09-25T04:08:15.159Z,1012.86
2018-09-25T04:09:15.310Z,1012.91
2018-09-25T04:10:15.481Z,1012.85
2018-09-25T04:11:15.652Z,1012.85
2018-09-25T04:12:15.823Z,1012.90
2018-09-25T04:13:15.992Z,1012.91
2018-09-25T04:14:16.162Z,1012.93
2018-09-25T04:15:16.402Z,1012.92
2018-09-25T04:16:16.569Z,1012.92
2018-09-25T04:17:16.596Z,1012.93
2018-09-25T04:18:16.765Z,1012.95
2018-09-25T04:19:16.947Z,1012.95
2018-09-25T04:20:17.118Z,1012.95
2018-09-25T04:21:17.285Z,1012.97
2018-09-25T04:22:17.480Z,1012.96
2018-09-25T04:23:17.679Z,1012.97
2018-09-25T04:24:17.924Z,1012.97
2018-09-25T04:25:18.022Z,1012.97
2018-09-25T04:26:18.200Z,1013.02
2018-09-25T04:27:18.370Z,1013.06
2018-09-25T04:28:18.599Z,1013.04
2018-09-25T04:29:18.719Z,1012.99
2018-09-25T04:30:18.906Z,1013.00
2018-09-25T04:31:19.083Z,1012.98
2018-09-25T04:32:19.249Z,1013.01
2018-09-25T04:33:19.485Z,1013.02
2018-09-25T04:34:19.568Z,1013.03
2018-09-25T04:35:20.068Z,1013.05
2018-09-25T04:36:19.949Z,1013.12
2018-09-25T04:37:20.123Z,1013.10
2018-09-25T04:38:20.302Z,1013.11
2018-09-25T04:39:20.473Z,1013.12
2018-09-25T04:40:20.656Z,1013.16
2018-09-25T04:41:20.833Z,1013.18
2018-09-25T04:42:21.034Z,1013.17
2018-09-25T04:43:21.235Z,1013.14
2018-09-25T04:44:21.384Z,1013.15
2018-09-25T04:45:21.561Z,1013.12
2018-09-25T04:46:21.737Z,1013.15
2018-09-25T04:47:21.908Z,1013.14
2018-09-25T04:48:24.498Z,1013.19
2018-09-25T04:49:22.341Z,1013.17
2018-09-25T04:50:22.380Z,1013.17
2018-09-25T04:51:22.644Z,1013.20
2018-09-25T04:52:22.670Z,1013.17
2018-09-25T04:53:22.904Z,1013.19
2018-09-25T04:54:23.062Z,1013.20
2018-09-25T04:55:23.123Z,1013.19
2018-09-25T04:56:23.285Z,1013.17
2018-09-25T04:57:23.480Z,1013.19
2018-09-25T04:58:23.714Z,1013.21
2018-09-25T04:59:23.755Z,1013.21
2018-09-25T05:00:23.986Z,1013.22
2018-09-25T05:01:24.034Z,1013.20
2018-09-25T05:02:24.223Z,1013.21
2018-09-25T05:03:24.572Z,1013.22
2018-09-25T05:04:24.598Z,1013.23
2018-09-25T05:05:24.663Z,1013.26
2018-09-25T05:06:24.832Z,1013.28
2018-09-25T05:07:25.016Z,1013.32
2018-09-25T05:08:25.209Z,1013.33
2018-09-25T05:09:25.384Z,1013.35
2018-09-25T05:10:25.578Z,1013.39
2018-09-25T05:11:26.048Z,1013.38
2018-09-25T05:12:25.855Z,1013.38
2018-09-25T05:13:26.095Z,1013.37
2018-09-25T05:14:26.224Z,1013.39
2018-09-25T05:15:26.328Z,1013.39
2018-09-25T05:16:26.513Z,1013.42
2018-09-25T05:17:26.722Z,1013.43
2018-09-25T05:18:27.408Z,1013.48
2018-09-25T05:19:27.067Z,1013.44
2018-09-25T05:20:27.231Z,1013.50
2018-09-25T05:21:27.403Z,1013.54
2018-09-25T05:22:27.594Z,1013.55
2018-09-25T05:23:27.782Z,1013.56
2018-09-25T05:24:27.922Z,1013.57
2018-09-25T05:25:28.096Z,1013.57
2018-09-25T05:26:28.291Z,1013.53
2018-09-25T05:27:28.480Z,1013.51
2018-09-25T05:28:28.653Z,1013.52
2018-09-25T05:29:28.828Z,1013.53
2018-09-25T05:30:29.001Z,1013.51
2018-09-25T05:31:29.171Z,1013.53
2018-09-25T05:32:29.414Z,1013.53
2018-09-25T05:33:29.466Z,1013.52
2018-09-25T05:34:29.640Z,1013.56
2018-09-25T05:35:30.421Z,1013.56
2018-09-25T05:36:29.969Z,1013.58
2018-09-25T05:37:30.147Z,1013.60
2018-09-25T05:38:30.320Z,1013.60
2018-09-25T05:39:30.489Z,1013.65
2018-09-25T05:40:30.670Z,1013.66
2018-09-25T05:41:30.834Z,1013.66
2018-09-25T05:42:31.003Z,1013.65
2018-09-25T05:43:31.180Z,1013.66
2018-09-25T05:44:31.350Z,1013.68
2018-09-25T05:45:31.560Z,1013.68
2018-09-25T05:46:31.730Z,1013.69
2018-09-25T05:47:31.950Z,1013.68
2018-09-25T05:48:32.192Z,1013.68
2018-09-25T05:49:32.294Z,1013.67
2018-09-25T05:50:32.469Z,1013.70
2018-09-25T05:51:32.635Z,1013.67
2018-09-25T05:52:32.819Z,1013.71
2018-09-25T05:53:32.990Z,1013.77
2018-09-25T05:54:33.169Z,1013.80
2018-09-25T05:55:33.395Z,1013.86
2018-09-25T05:56:33.516Z,1013.84
2018-09-25T05:57:33.695Z,1013.88
2018-09-25T05:58:33.868Z,1013.88
2018-09-25T05:59:34.043Z,1013.92
2018-09-25T06:00:34.208Z,1013.89
2018-09-25T06:01:34.384Z,1013.91
2018-09-25T06:02:34.555Z,1013.84
2018-09-25T06:03:34.728Z,1013.87
2018-09-25T06:04:34.911Z,1013.91
2018-09-25T06:05:35.166Z,1013.89
2018-09-25T06:06:35.295Z,1013.92
2018-09-25T06:07:35.466Z,1013.90
2018-09-25T06:08:35.636Z,1013.94
2018-09-25T06:09:35.827Z,1013.95
2018-09-25T06:10:35.974Z,1013.97
2018-09-25T06:11:36.193Z,1014.00
2018-09-25T06:12:36.375Z,1014.01
2018-09-25T06:13:36.547Z,1014.03
2018-09-25T06:14:36.725Z,1014.04
2018-09-25T06:15:36.948Z,1014.03
2018-09-25T06:16:37.232Z,1014.03
2018-09-25T06:17:37.276Z,1014.01
2018-09-25T06:18:37.500Z,1014.01
2018-09-25T06:19:37.623Z,1013.99
2018-09-25T06:20:37.803Z,1014.02
2018-09-25T06:21:37.973Z,1014.01
2018-09-25T06:22:38.155Z,1013.93
2018-09-25T06:23:38.323Z,1013.98
2018-09-25T06:24:38.493Z,1013.93
2018-09-25T06:25:38.660Z,1013.92
2018-09-25T06:26:38.831Z,1013.88
2018-09-25T06:27:39.017Z,1013.91
2018-09-25T06:28:39.193Z,1013.96
2018-09-25T06:29:39.357Z,1013.92
2018-09-25T06:30:39.545Z,1013.95
2018-09-25T06:31:39.719Z,1013.96
2018-09-25T06:32:39.938Z,1013.97
2018-09-25T06:33:40.086Z,1014.04
2018-09-25T06:34:40.346Z,1014.02
2018-09-25T06:35:40.484Z,1014.03
2018-09-25T06:36:40.540Z,1014.00
2018-09-25T06:37:40.711Z,1014.03
2018-09-25T06:38:40.942Z,1014.01
2018-09-25T06:39:41.063Z,1014.01
2018-09-25T06:40:41.306Z,1013.95
2018-09-25T06:41:41.406Z,1013.99
2018-09-25T06:42:41.589Z,1014.01
2018-09-25T06:43:41.925Z,1013.97
2018-09-25T06:44:41.975Z,1014.01
2018-09-25T06:45:42.156Z,1014.03
2018-09-25T06:46:42.317Z,1014.05
2018-09-25T06:47:42.491Z,1014.04
2018-09-25T06:48:42.660Z,1014.08
2018-09-25T06:49:42.843Z,1014.04
2018-09-25T06:50:43.015Z,1014.07
2018-09-25T06:51:43.182Z,1014.11
2018-09-25T06:52:43.349Z,1014.17
2018-09-25T06:53:43.523Z,1014.20
2018-09-25T06:54:43.746Z,1014.23
2018-09-25T06:55:43.861Z,1014.21
2018-09-25T06:56:44.035Z,1014.21
2018-09-25T06:57:44.209Z,1014.18
2018-09-25T06:58:44.426Z,1014.23
2018-09-25T06:59:44.583Z,1014.23
2018-09-25T07:00:44.768Z,1014.24
2018-09-25T07:01:44.923Z,1014.26
2018-09-25T07:02:45.116Z,1014.31
2018-09-25T07:03:45.570Z,1014.33
2018-09-25T07:04:45.392Z,1014.33
2018-09-25T07:05:46.129Z,1014.36
2018-09-25T07:06:45.675Z,1014.37
2018-09-25T07:07:45.889Z,1014.35
2018-09-25T07:08:46.057Z,1014.36
2018-09-25T07:09:46.259Z,1014.40
2018-09-25T07:10:46.560Z,1014.38
2018-09-25T07:11:46.607Z,1014.39
2018-09-25T07:12:46.835Z,1014.40
2018-09-25T07:13:46.996Z,1014.43
2018-09-25T07:14:47.187Z,1014.46
2018-09-25T07:15:47.714Z,1014.47
2018-09-25T07:16:47.474Z,1014.46
2018-09-25T07:17:47.723Z,1014.48
2018-09-25T07:18:47.813Z,1014.50
2018-09-25T07:19:48.147Z,1014.54
2018-09-25T07:20:48.171Z,1014.58
2018-09-25T07:21:48.353Z,1014.56
2018-09-25T07:22:48.564Z,1014.57
2018-09-25T07:23:48.723Z,1014.61
2018-09-25T07:24:48.975Z,1014.61
2018-09-25T07:25:49.082Z,1014.65
2018-09-25T07:26:49.258Z,1014.69
2018-09-25T07:27:49.538Z,1014.71
2018-09-25T07:28:49.777Z,1014.74
2018-09-25T07:29:50.076Z,1014.75
2018-09-25T07:30:50.006Z,1014.74
2018-09-25T07:31:50.187Z,1014.74
2018-09-25T07:32:50.372Z,1014.73
2018-09-25T07:33:50.774Z,1014.76
2018-09-25T07:34:50.858Z,1014.73
2018-09-25T07:35:51.070Z,1014.85
2018-09-25T07:36:50.988Z,1014.86
2018-09-25T07:37:51.169Z,1014.86
2018-09-25T07:38:51.365Z,1014.85
2018-09-25T07:39:51.664Z,1014.93
2018-09-25T07:40:51.766Z,1014.94
2018-09-25T07:41:51.813Z,1014.97
2018-09-25T07:43:00.810Z,1014.98
2018-09-25T07:43:53.595Z,1014.96
2018-09-25T07:44:54.152Z,1014.94
2018-09-25T07:45:54.152Z,1014.98
2018-09-25T07:46:52.773Z,1015.01
2018-09-25T07:47:54.652Z,1015.02
2018-09-25T07:48:54.028Z,1015.04
2018-09-25T07:49:54.080Z,1015.11
2018-09-25T07:50:53.950Z,1015.11
2018-09-25T07:51:54.623Z,1015.15
2018-09-25T07:52:54.570Z,1015.16
2018-09-25T07:53:54.975Z,1015.19
2018-09-25T07:54:54.132Z,1015.17
2018-09-25T07:55:55.447Z,1015.17
2018-09-25T07:56:55.855Z,1015.22
2018-09-25T07:57:56.269Z,1015.24
2018-09-25T07:58:55.500Z,1015.22
2018-09-25T07:59:55.802Z,1015.26
2018-09-25T08:00:55.892Z,1015.31
2018-09-25T08:01:56.381Z,1015.34
2018-09-25T08:02:56.601Z,1015.33
2018-09-25T08:03:56.311Z,1015.37
2018-09-25T08:04:56.596Z,1015.27
2018-09-25T08:05:57.137Z,1015.27
2018-09-25T08:06:57.376Z,1015.29
2018-09-25T08:07:57.537Z,1015.27
2018-09-25T08:08:57.246Z,1015.30
2018-09-25T08:09:58.113Z,1015.26
2018-09-25T08:10:57.783Z,1015.26
2018-09-25T08:11:57.238Z,1015.29
2018-09-25T08:12:57.464Z,1015.32
2018-09-25T08:13:58.149Z,1015.30
2018-09-25T08:14:57.887Z,1015.28
2018-09-25T08:15:58.429Z,1015.26
2018-09-25T08:16:58.503Z,1015.32
2018-09-25T08:18:00.162Z,1015.30
2018-09-25T08:19:01.505Z,1015.31
2018-09-25T08:20:00.080Z,1015.28
2018-09-25T08:21:00.127Z,1015.22
2018-09-25T08:21:59.394Z,1015.21
2018-09-25T08:22:59.596Z,1015.17
2018-09-25T08:23:59.789Z,1015.15
2018-09-25T08:24:59.664Z,1015.15
2018-09-25T08:26:01.005Z,1015.16
2018-09-25T08:26:59.946Z,1015.10
2018-09-25T08:27:59.645Z,1015.12
2018-09-25T08:29:00.670Z,1015.15
2018-09-25T08:29:59.987Z,1015.13
2018-09-25T08:31:01.370Z,1015.13
2018-09-25T08:32:01.198Z,1015.14
2018-09-25T08:33:00.463Z,1015.14
2018-09-25T08:34:00.681Z,1015.20
2018-09-25T08:35:01.188Z,1015.15
2018-09-25T08:36:01.066Z,1015.18
2018-09-25T08:37:01.238Z,1015.14
2018-09-25T08:38:01.414Z,1015.12
2018-09-25T08:39:01.805Z,1015.13
2018-09-25T08:40:01.900Z,1015.11
2018-09-25T08:41:01.958Z,1015.15
2018-09-25T08:42:02.567Z,1015.11
2018-09-25T08:43:02.356Z,1015.10
2018-09-25T08:44:02.636Z,1015.05
2018-09-25T08:45:02.648Z,1015.10
2018-09-25T08:46:02.858Z,1015.10
2018-09-25T08:47:03.051Z,1015.11
2018-09-25T08:48:03.277Z,1015.12
2018-09-25T08:49:05.450Z,1015.08
2018-09-25T08:50:03.739Z,1015.10
2018-09-25T08:51:03.684Z,1015.09
2018-09-25T08:52:03.860Z,1015.11
2018-09-25T08:53:04.040Z,1015.11
2018-09-25T08:54:04.220Z,1015.13
2018-09-25T08:55:04.408Z,1015.07
2018-09-25T08:56:04.602Z,1015.06
2018-09-25T08:57:04.842Z,1015.11
2018-09-25T08:58:04.910Z,1015.11
2018-09-25T08:59:05.084Z,1015.11
2018-09-25T09:00:05.265Z,1015.14
2018-09-25T09:01:05.536Z,1015.13
2018-09-25T09:02:06.482Z,1015.19
2018-09-25T09:03:06.713Z,1015.09
2018-09-25T09:04:07.089Z,1015.12
2018-09-25T09:05:06.235Z,1015.10
2018-09-25T09:06:06.347Z,1015.11
2018-09-25T09:07:06.403Z,1015.13
2018-09-25T09:08:06.662Z,1015.15
2018-09-25T09:09:06.683Z,1015.17
2018-09-25T09:10:06.870Z,1015.15
2018-09-25T09:11:07.043Z,1015.14
2018-09-25T09:12:07.250Z,1015.18
2018-09-25T09:13:07.543Z,1015.20
2018-09-25T09:14:07.672Z,1015.18
2018-09-25T09:15:09.466Z,1015.21
2018-09-25T09:16:09.598Z,1015.23
2018-09-25T09:17:10.266Z,1015.26
2018-09-25T09:18:10.232Z,1015.24
2018-09-25T09:19:08.748Z,1015.26
2018-09-25T09:20:09.935Z,1015.27
2018-09-25T09:21:08.722Z,1015.28
2018-09-25T09:22:09.026Z,1015.31
2018-09-25T09:23:09.661Z,1015.29
2018-09-25T09:24:09.280Z,1015.30
2018-09-25T09:25:09.568Z,1015.32
2018-09-25T09:26:09.737Z,1015.30
2018-09-25T09:27:10.624Z,1015.33
2018-09-25T09:28:10.389Z,1015.29
2018-09-25T09:29:10.105Z,1015.27
2018-09-25T09:30:10.681Z,1015.29
2018-09-25T09:31:10.383Z,1015.31
2018-09-25T09:32:10.930Z,1015.28
2018-09-25T09:33:11.569Z,1015.26
2018-09-25T09:34:11.039Z,1015.30
2018-09-25T09:35:12.839Z,1015.32
2018-09-25T09:36:11.637Z,1015.33
2018-09-25T09:37:11.295Z,1015.29
2018-09-25T09:38:11.481Z,1015.31
2018-09-25T09:39:11.797Z,1015.29
2018-09-25T09:40:11.854Z,1015.32
2018-09-25T09:41:12.258Z,1015.32
2018-09-25T09:42:12.237Z,1015.27
2018-09-25T09:43:12.402Z,1015.29
2018-09-25T09:44:12.593Z,1015.31
2018-09-25T09:45:12.803Z,1015.34
2018-09-25T09:46:13.036Z,1015.31
2018-09-25T09:47:13.189Z,1015.33
2018-09-25T09:48:13.463Z,1015.28
2018-09-25T09:49:13.515Z,1015.29
2018-09-25T09:50:13.715Z,1015.26
2018-09-25T09:51:13.884Z,1015.25
2018-09-25T09:52:14.061Z,1015.24
2018-09-25T09:53:14.236Z,1015.24
2018-09-25T09:54:14.415Z,1015.28
2018-09-25T09:55:14.598Z,1015.30
2018-09-25T09:56:14.832Z,1015.28
2018-09-25T09:57:14.972Z,1015.25
2018-09-25T09:58:15.162Z,1015.28
2018-09-25T09:59:15.341Z,1015.29
2018-09-25T10:00:15.766Z,1015.30
2018-09-25T10:01:15.713Z,1015.28
2018-09-25T10:02:15.898Z,1015.31
2018-09-25T10:03:16.089Z,1015.32
2018-09-25T10:04:16.266Z,1015.31
2018-09-25T10:05:16.449Z,1015.27
2018-09-25T10:06:16.630Z,1015.23
2018-09-25T10:07:16.865Z,1015.28
2018-09-25T10:08:16.985Z,1015.21
2018-09-25T10:09:17.190Z,1015.22
2018-09-25T10:10:17.351Z,1015.33
2018-09-25T10:11:19.833Z,1015.38
2018-09-25T10:12:18.448Z,1015.28
2018-09-25T10:13:17.990Z,1015.35
2018-09-25T10:14:18.064Z,1015.22
2018-09-25T10:15:18.295Z,1015.19
2018-09-25T10:16:19.325Z,1015.21
2018-09-25T10:17:18.584Z,1015.23
2018-09-25T10:18:18.850Z,1015.24
2018-09-25T10:19:18.936Z,1015.22
2018-09-25T10:20:19.123Z,1015.17
2018-09-25T10:21:19.312Z,1015.18
2018-09-25T10:22:19.497Z,1015.21
2018-09-25T10:23:19.684Z,1015.19
2018-09-25T10:24:19.881Z,1015.16
2018-09-25T10:25:21.091Z,1015.15
2018-09-25T10:26:20.217Z,1015.20
2018-09-25T10:27:20.456Z,1015.15
2018-09-25T10:28:23.969Z,1015.19
2018-09-25T10:29:22.082Z,1015.17
2018-09-25T10:30:22.210Z,1015.15
2018-09-25T10:31:24.802Z,1015.10
2018-09-25T10:32:22.940Z,1015.10
2018-09-25T10:33:23.594Z,1015.09
2018-09-25T10:34:23.098Z,1015.07
2018-09-25T10:35:25.439Z,1015.09
2018-09-25T10:36:24.694Z,1015.14
2018-09-25T10:37:25.499Z,1015.38
2018-09-25T10:38:22.241Z,1015.15
2018-09-25T10:39:22.422Z,1015.17
2018-09-25T10:40:22.603Z,1015.11
2018-09-25T10:41:22.780Z,1015.17
2018-09-25T10:42:22.962Z,1015.17
2018-09-25T10:43:23.139Z,1015.17
2018-09-25T10:44:23.324Z,1015.18
2018-09-25T10:45:23.521Z,1015.18
2018-09-25T10:46:23.690Z,1015.14
2018-09-25T10:47:23.871Z,1015.14
2018-09-25T10:48:24.053Z,1015.14
2018-09-25T10:49:25.963Z,1015.19
2018-09-25T10:50:24.439Z,1015.21
2018-09-25T10:51:24.613Z,1015.20
2018-09-25T10:52:24.792Z,1015.19
2018-09-25T10:53:24.969Z,1015.19
2018-09-25T10:54:25.138Z,1015.53
2018-09-25T10:55:25.352Z,1015.52
2018-09-25T10:56:25.495Z,1015.49
2018-09-25T10:57:25.682Z,1015.46
2018-09-25T10:58:25.861Z,1015.54
2018-09-25T10:59:26.037Z,1015.55
2018-09-25T11:00:26.214Z,1015.55
2018-09-25T11:01:26.395Z,1015.41
2018-09-25T11:02:26.570Z,1015.25
2018-09-25T11:03:26.815Z,1015.24
2018-09-25T11:04:26.871Z,1015.28
2018-09-25T11:05:27.061Z,1015.28
2018-09-25T11:06:27.341Z,1015.24
2018-09-25T11:07:27.368Z,1015.23
2018-09-25T11:08:27.558Z,1015.26
2018-09-25T11:09:27.757Z,1015.25
2018-09-25T11:10:27.972Z,1015.23
2018-09-25T11:11:28.156Z,1015.26
2018-09-25T11:12:28.335Z,1015.25
2018-09-25T11:13:28.532Z,1015.22
2018-09-25T11:14:28.709Z,1015.21
2018-09-25T11:15:28.941Z,1015.19
2018-09-25T11:16:29.075Z,1015.19
2018-09-25T11:17:29.276Z,1015.16
2018-09-25T11:18:29.483Z,1015.17
2018-09-25T11:19:29.680Z,1015.19
2018-09-25T11:20:29.879Z,1015.16
2018-09-25T11:21:30.058Z,1015.20
2018-09-25T11:22:30.235Z,1015.26
2018-09-25T11:23:30.420Z,1015.18
2018-09-25T11:24:31.177Z,1015.27
2018-09-25T11:25:31.190Z,1015.37
2018-09-25T11:26:32.170Z,1015.42
2018-09-25T11:27:31.081Z,1015.53
2018-09-25T11:28:31.283Z,1015.54
2018-09-25T11:29:35.537Z,1015.53
2018-09-25T11:30:31.712Z,1015.51
2018-09-25T11:31:31.995Z,1015.49
2018-09-25T11:32:32.110Z,1015.48
2018-09-25T11:33:32.292Z,1015.48
2018-09-25T11:34:32.640Z,1015.08
2018-09-25T11:35:32.822Z,1015.12
2018-09-25T11:36:34.400Z,1015.10
2018-09-25T11:37:35.139Z,1015.05
2018-09-25T11:38:33.617Z,1015.07
2018-09-25T11:39:33.300Z,1015.09
2018-09-25T11:40:33.486Z,1015.11
2018-09-25T11:41:33.722Z,1015.04
2018-09-25T11:42:33.866Z,1015.05
2018-09-25T11:43:34.310Z,1015.06
2018-09-25T11:44:34.224Z,1015.03
2018-09-25T11:45:34.367Z,1015.03
2018-09-25T11:46:34.591Z,1015.07
2018-09-25T11:47:35.501Z,1015.11
2018-09-25T11:48:34.967Z,1015.20
2018-09-25T11:49:35.202Z,1015.08
2018-09-25T11:50:35.331Z,1015.04
2018-09-25T11:51:35.554Z,1015.04
2018-09-25T11:52:35.717Z,1015.09
2018-09-25T11:53:36.215Z,1015.31
2018-09-25T11:54:36.087Z,1015.06
2018-09-25T11:55:36.268Z,1015.11
2018-09-25T11:56:36.443Z,1015.08
2018-09-25T11:57:36.620Z,1015.02
2018-09-25T11:58:36.879Z,1015.03
2018-09-25T11:59:36.983Z,1015.02
2018-09-25T12:00:37.195Z,1014.99
2018-09-25T12:01:37.375Z,1014.99
2018-09-25T12:02:37.787Z,1014.97
2018-09-25T12:03:37.839Z,1014.95
2018-09-25T12:04:37.960Z,1015.00
2018-09-25T12:05:38.290Z,1014.95
2018-09-25T12:06:38.302Z,1014.99
2018-09-25T12:07:38.567Z,1014.97